Thunder radar more information blitzortung!


Radar de pluja more information rain snow radar


Visita la nostra xarxa de llocs de meteo:

Template documentation
and downloads

And another site



No particular awareness of the weather is required.    There are no Weather-warnings

Pagina Historial Weather Underground text

Diari Resum Setembre 22, 2017 Unitats:  Imperial    Mètric   Tant
« Previous Dia
SegĂźent Dia »
Diari Setmana Mensual Anual Personalitzada
  Maxima: Minima: Media:
Temperatura: TemperatureC °F 15.8 °F 19.1 °F
Punt de rosada: DewpointC °F 13.7 °F 15 °F
Humitat: Humidity % 62 % 77 %
Wind Speed: WindSpeedKMH mph 0.0 mph 3.3 mph
RĂ fegues de vent: WindSpeedGustKMH mph - -
Vent:- - SE
Pression baro: PressurehPa in 1018.8 in -
Precipitacions: 4.1 in    
Historical Graphs
 
 
Dades de taula per Setembre 22, 2017
Temps Temperatura Punt de rosada Pression baro Vent Wind Speed RĂ fegues de vent Humitat Rainfall Rate (Hourly)
TemperatureC °F DewpointC °F PressurehPa in Calm     Humidity % HourlyPrecipMM in
00:00 19.0 °F 15.7 °F 1018.8 in Calm     81 % 0.0 in
00:05 19.0 °F 15.7 °F 1018.8 in Calm     81 % 0.0 in
00:10 18.9 °F 15.8 °F 1018.8 in Calm     82 % 0.0 in
00:20 16.6 °F 14.8 °F 1019.9 in Calm     89 % 0.0 in
00:30 16.6 °F 14.8 °F 1019.9 in Calm     89 % 0.0 in
00:40 16.5 °F 14.7 °F 1019.9 in Calm     89 % 0.0 in
00:50 16.3 °F 14.5 °F 1019.9 in SE 1.6 mph 3.2 mph 89 % 0.0 in
01:00 16.1 °F 14.3 °F 1019.9 in Calm   3.2 mph 89 % 0.0 in
01:10 16.2 °F 14.4 °F 1019.9 in SW 1.6 mph 3.2 mph 89 % 0.0 in
01:20 16.2 °F 14.6 °F 1019.9 in WSW 3.2 mph 3.2 mph 90 % 0.0 in
01:30 16.1 °F 14.4 °F 1019.9 in Calm   3.2 mph 90 % 0.0 in
01:40 16.0 °F 14.2 °F 1019.9 in NNW 1.6 mph 1.6 mph 89 % 0.0 in
01:50 15.9 °F 14.1 °F 1019.9 in Calm   3.2 mph 89 % 0.0 in
02:00 15.9 °F 14.1 °F 1019.9 in WSW 3.2 mph 4.8 mph 89 % 0.0 in
02:10 15.8 °F 14.2 °F 1019.9 in SW 1.6 mph 4.8 mph 90 % 0.0 in
02:20 16.0 °F 14.3 °F 1019.9 in SW 1.6 mph 3.2 mph 90 % 0.0 in
02:30 16.0 °F 14.6 °F 1019.9 in Calm   1.6 mph 91 % 0.0 in
02:40 16.1 °F 14.6 °F 1019.9 in WSW 1.6 mph 3.2 mph 91 % 0.0 in
02:50 16.2 °F 14.7 °F 1019.9 in WSW 1.6 mph 3.2 mph 91 % 0.0 in
03:00 16.2 °F 14.7 °F 1019.9 in Calm     91 % 0.0 in
03:10 16.3 °F 15.0 °F 1019.9 in Calm     92 % 0.0 in
03:20 16.4 °F 15.1 °F 1019.9 in Calm   1.6 mph 92 % 0.0 in
03:30 16.6 °F 15.3 °F 1019.9 in Calm   1.6 mph 92 % 0.0 in
03:40 16.8 °F 15.5 °F 1020.9 in Calm     92 % 0.0 in
03:50 17.3 °F 16.0 °F 1020.9 in Calm     92 % 0.0 in
04:00 17.1 °F 15.6 °F 1020.9 in NNW 1.6 mph 3.2 mph 91 % 0.0 in
04:10 17.2 °F 15.7 °F 1020.9 in Calm     91 % 0.0 in
04:20 17.8 °F 16.3 °F 1020.9 in WNW 1.6 mph   91 % 0.0 in
04:30 18.3 °F 16.6 °F 1020.9 in Calm   1.6 mph 90 % 0.0 in
04:40 18.9 °F 16.9 °F 1020.9 in NE 3.2 mph 4.8 mph 88 % 0.0 in
04:50 19.0 °F 16.4 °F 1020.9 in NE 3.2 mph 4.8 mph 85 % 0.0 in
05:00 19.7 °F 16.9 °F 1021.9 in NE 1.6 mph 3.2 mph 84 % 0.0 in
05:10 19.9 °F 16.7 °F 1021.9 in NE 1.6 mph 3.2 mph 82 % 0.0 in
05:20 19.9 °F 16.7 °F 1021.9 in NE 3.2 mph 4.8 mph 82 % 0.0 in
05:30 20.0 °F 16.4 °F 1020.9 in NE 3.2 mph 4.8 mph 80 % 0.0 in
05:40 20.0 °F 16.4 °F 1021.9 in NE 3.2 mph 4.8 mph 80 % 0.0 in
05:50 20.2 °F 16.6 °F 1021.9 in NE 4.8 mph 4.8 mph 80 % 0.0 in
06:00 21.0 °F 17.0 °F 1021.9 in NNE 3.2 mph 4.8 mph 78 % 0.0 in
09:40 20.8 °F 15.8 °F 1022.9 in SW 3.2 mph 4.8 mph 73 % 0.0 in
09:50 20.1 °F 15.3 °F 1022.9 in SW 4.8 mph 4.8 mph 74 % 0.0 in
10:00 19.3 °F 14.9 °F 1022.9 in WSW 4.8 mph 8.0 mph 76 % 0.0 in
10:10 18.6 °F 14.7 °F 1022.9 in WSW 1.6 mph 4.8 mph 78 % 0.0 in
10:20 18.3 °F 14.6 °F 1022.9 in West 1.6 mph 3.2 mph 79 % 0.0 in
10:30 18.3 °F 14.6 °F 1022.9 in WNW 3.2 mph 4.8 mph 79 % 0.0 in
11:04 21.5 °F 17.1 °F 1021.9 in NE 1.9 mph 1.9 mph 76 % 0.0 in
11:09 22.0 °F 17.6 °F 1021.9 in ESE 5.6 mph 5.6 mph 76 % 0.0 in
11:14 22.2 °F 17.3 °F 1021.9 in NE 7.9 mph 7.9 mph 74 % 0.0 in
11:19 22.0 °F 17.2 °F 1021.9 in East 3.9 mph 3.9 mph 74 % 0.0 in
11:24 22.4 °F 17.6 °F 1021.9 in NNE 4.7 mph   74 % 0.0 in
11:29 22.4 °F 17.3 °F 1021.9 in NNE 9.3 mph 9.3 mph 73 % 0.0 in
11:34 22.7 °F 17.6 °F 1021.9 in East 3.7 mph 4.2 mph 73 % 0.0 in
11:39 23.2 °F 17.7 °F 1021.9 in ENE 3.9 mph 3.9 mph 71 % 0.0 in
11:44 23.4 °F 17.8 °F 1021.9 in SE 3.9 mph 3.9 mph 71 % 0.0 in
11:49 23.3 °F 17.5 °F 1021.9 in ENE 5.6 mph 5.6 mph 70 % 0.0 in
11:54 23.2 °F 17.2 °F 1021.9 in ESE 5.0 mph 5.3 mph 69 % 0.0 in
11:59 22.8 °F 16.6 °F 1021.9 in ESE 5.6 mph 5.6 mph 68 % 0.0 in
12:04 22.6 °F 16.6 °F 1021.9 in ENE 5.6 mph 5.6 mph 69 % 0.0 in
12:09 22.6 °F 16.4 °F 1021.9 in SE 5.6 mph 5.6 mph 68 % 0.0 in
12:14 23.1 °F 16.6 °F 1021.9 in SSE 5.6 mph 5.6 mph 67 % 0.0 in
12:19 24.1 °F 17.6 °F 1021.9 in WSW 2.3 mph 3.5 mph 67 % 0.0 in
12:24 24.0 °F 17.0 °F 1021.9 in East 7.4 mph 7.4 mph 65 % 0.0 in
12:25 24.0 °F 17.0 °F 1021.9 in ENE 7.4 mph 7.4 mph 65 % 0.0 in
12:30 23.7 °F 16.9 °F 1021.9 in South 3.7 mph 3.7 mph 66 % 0.0 in
12:35 23.9 °F 17.2 °F 1021.9 in SSE 3.7 mph 3.7 mph 66 % 0.0 in
12:40 23.7 °F 16.7 °F 1021.9 in South 3.9 mph 3.9 mph 65 % 0.0 in
12:45 23.3 °F 16.3 °F 1021.9 in ESE 3.9 mph 3.9 mph 65 % 0.0 in
12:50 23.4 °F 16.4 °F 1021.9 in SSE 7.4 mph 7.4 mph 65 % 0.0 in
12:55 23.4 °F 16.2 °F 1021.9 in SSE 7.4 mph 7.4 mph 64 % 0.0 in
13:00 23.3 °F 16.3 °F 1021.9 in NE 3.7 mph 3.7 mph 65 % 0.0 in
13:05 23.3 °F 16.1 °F 1021.9 in ESE 5.6 mph 5.6 mph 64 % 0.0 in
13:10 23.5 °F 16.6 °F 1021.9 in SW 3.7 mph 3.7 mph 65 % 0.0 in
13:15 23.8 °F 16.6 °F 1021.9 in East 3.7 mph 3.7 mph 64 % 0.0 in
13:20 23.3 °F 16.1 °F 1021.9 in SW 3.7 mph 3.7 mph 64 % 0.0 in
13:25 23.3 °F 16.1 °F 1021.9 in SE 4.2 mph   64 % 0.0 in
13:30 23.1 °F 15.9 °F 1021.9 in SSE 7.4 mph 7.4 mph 64 % 0.0 in
13:35 23.2 °F 16.3 °F 1021.9 in South 6.1 mph 6.1 mph 65 % 0.0 in
13:40 23.3 °F 16.3 °F 1021.9 in WSW 3.5 mph 3.5 mph 65 % 0.0 in
13:45 23.2 °F 16.0 °F 1021.9 in WSW 5.6 mph 5.6 mph 64 % 0.0 in
13:50 23.5 °F 16.6 °F 1021.9 in SSE 7.4 mph 7.4 mph 65 % 0.0 in
13:55 23.6 °F 16.6 °F 1021.9 in SW 3.7 mph 3.7 mph 65 % 0.0 in
14:00 23.6 °F 16.4 °F 1021.9 in SE 5.6 mph 5.6 mph 64 % 0.0 in
14:05 23.3 °F 15.6 °F 1021.9 in South 7.4 mph 7.4 mph 62 % 0.0 in
14:10 23.3 °F 16.1 °F 1021.9 in SW 5.6 mph 5.6 mph 64 % 0.0 in
14:15 23.3 °F 16.1 °F 1021.9 in WSW 1.9 mph 1.9 mph 64 % 0.0 in
14:20 23.1 °F 16.2 °F 1021.9 in SW 3.7 mph 3.7 mph 65 % 0.0 in
14:25 23.0 °F 16.1 °F 1021.9 in SW 7.6 mph 7.6 mph 65 % 0.0 in
15:42 18.1 °F 14.6 °F 1022.9 in NW 7.6 mph 7.6 mph 80 % 0.0 in
15:47 18.3 °F 14.8 °F 1022.9 in ENE 3.9 mph 3.9 mph 80 % 0.0 in
15:52 18.2 °F 14.7 °F 1022.9 in NE 5.6 mph 5.6 mph 80 % 4.1 in
15:57 18.4 °F 14.9 °F 1022.9 in NNW 5.6 mph 5.6 mph 80 % 4.1 in
16:02 18.3 °F 14.8 °F 1022.9 in NNE 5.6 mph 5.6 mph 80 % 4.1 in
16:07 18.4 °F 14.9 °F 1022.9 in NE 3.2 mph 3.2 mph 80 % 4.1 in
16:12 18.3 °F 14.8 °F 1022.9 in NE 5.6 mph 5.6 mph 80 % 4.1 in
16:17 18.5 °F 15.2 °F 1022.9 in NE 1.9 mph   81 % 4.1 in
16:22 18.7 °F 15.2 °F 1021.9 in NE 2.6 mph   80 % 4.1 in
16:27 18.8 °F 15.1 °F 1021.9 in NNE 11.1 mph 11.1 mph 79 % 4.1 in
16:32 18.9 °F 15.2 °F 1021.9 in ENE 7.4 mph 7.4 mph 79 % 4.1 in
16:37 18.7 °F 14.8 °F 1021.9 in ENE 7.4 mph 7.4 mph 78 % 4.1 in
16:42 18.5 °F 14.6 °F 1021.9 in NNE 9.3 mph 9.3 mph 78 % 4.1 in
16:47 18.5 °F 14.4 °F 1021.9 in NE 9.3 mph 9.3 mph 77 % 4.1 in
16:52 18.5 °F 14.4 °F 1021.9 in NNE 11.1 mph 11.1 mph 77 % 0.0 in
16:57 18.6 °F 14.5 °F 1021.9 in NNE 9.3 mph 9.3 mph 77 % 0.0 in
17:02 18.7 °F 14.6 °F 1021.9 in ENE 6.1 mph 6.1 mph 77 % 0.0 in
17:07 18.7 °F 14.6 °F 1021.9 in NE 7.4 mph 7.4 mph 77 % 0.0 in
17:12 18.7 °F 14.4 °F 1021.9 in ENE 8.7 mph 8.7 mph 76 % 0.0 in
17:17 18.9 °F 14.6 °F 1021.9 in NE 7.4 mph 7.4 mph 76 % 0.0 in
17:22 18.9 °F 14.6 °F 1021.9 in ENE 7.4 mph 7.4 mph 76 % 0.0 in
17:27 19.0 °F 14.3 °F 1021.9 in NE 5.6 mph 5.6 mph 74 % 0.0 in
17:32 19.1 °F 14.3 °F 1021.9 in Calm     74 % 0.0 in
17:37 19.1 °F 14.2 °F 1021.9 in ENE 5.6 mph 5.6 mph 73 % 0.0 in
17:38 19.1 °F 14.2 °F 1021.9 in ENE 5.6 mph 5.6 mph 73 % 0.0 in
17:43 19.3 °F 14.3 °F 1021.9 in ENE 1.9 mph   73 % 0.0 in
17:48 19.4 °F 14.7 °F 1021.9 in NE 2.3 mph   74 % 0.0 in
17:53 19.4 °F 14.7 °F 1021.9 in North 1.9 mph   74 % 0.0 in
17:58 19.6 °F 14.8 °F 1021.9 in North 1.9 mph   74 % 0.0 in
18:03 19.3 °F 14.3 °F 1021.9 in NNE 3.7 mph 3.9 mph 73 % 0.0 in
18:08 19.2 °F 14.2 °F 1021.9 in NE 2.6 mph 2.6 mph 73 % 0.0 in
18:13 19.1 °F 13.9 °F 1021.9 in ENE 1.9 mph   72 % 0.0 in
18:18 19.1 °F 13.9 °F 1021.9 in ENE 1.9 mph   72 % 0.0 in
18:23 19.1 °F 14.2 °F 1021.9 in ENE 2.3 mph 2.3 mph 73 % 0.0 in
18:28 19.2 °F 14.2 °F 1021.9 in Calm     73 % 0.0 in
18:33 19.1 °F 13.9 °F 1021.9 in Calm     72 % 0.0 in
18:38 19.1 °F 13.9 °F 1021.9 in ENE 2.3 mph 2.3 mph 72 % 0.0 in
18:43 19.1 °F 13.9 °F 1021.9 in ENE 2.6 mph 2.6 mph 72 % 0.0 in
18:48 19.1 °F 14.2 °F 1021.9 in Calm     73 % 0.0 in
18:53 19.1 °F 14.2 °F 1021.9 in Calm     73 % 0.0 in
18:58 19.1 °F 14.2 °F 1021.9 in Calm     73 % 0.0 in
19:03 19.1 °F 14.3 °F 1021.9 in Calm     74 % 0.0 in
19:08 19.0 °F 14.3 °F 1021.9 in ENE 1.9 mph 1.9 mph 74 % 0.0 in
19:13 18.9 °F 14.6 °F 1021.9 in ENE 1.9 mph   76 % 0.0 in
19:18 18.8 °F 14.5 °F 1021.9 in ENE 2.3 mph   76 % 0.0 in
19:23 18.8 °F 14.5 °F 1021.9 in ENE 1.9 mph   76 % 0.0 in
19:28 18.7 °F 14.4 °F 1021.9 in Calm     76 % 0.0 in
19:33 18.6 °F 14.3 °F 1021.9 in Calm     76 % 0.0 in
19:38 18.5 °F 14.2 °F 1021.9 in Calm     76 % 0.0 in
19:43 18.5 °F 14.2 °F 1021.9 in ENE 2.6 mph 2.6 mph 76 % 0.0 in
19:48 18.4 °F 14.1 °F 1021.9 in ENE 3.7 mph 3.7 mph 76 % 0.0 in
19:53 18.4 °F 14.3 °F 1021.9 in ENE 1.9 mph   77 % 0.0 in
19:58 18.4 °F 14.3 °F 1021.9 in ENE 1.9 mph   77 % 0.0 in
20:03 18.3 °F 14.2 °F 1021.9 in ENE 2.3 mph   77 % 0.0 in
20:08 18.2 °F 14.1 °F 1021.9 in NE 3.7 mph 3.7 mph 77 % 0.0 in
20:18 18.1 °F 14.0 °F 1021.9 in NNE 1.9 mph   77 % 0.0 in
20:23 17.9 °F 14.0 °F 1021.9 in NNE 5.6 mph 5.6 mph 78 % 0.0 in
20:28 17.8 °F 13.9 °F 1021.9 in NNE 3.7 mph 3.7 mph 78 % 0.0 in
20:33 17.7 °F 13.8 °F 1020.9 in NNE 5.6 mph 5.6 mph 78 % 0.0 in
20:38 17.7 °F 13.8 °F 1020.9 in NNE 3.7 mph 3.7 mph 78 % 0.0 in
20:43 17.6 °F 13.7 °F 1020.9 in Calm     78 % 0.0 in
20:48 17.6 °F 13.9 °F 1021.9 in NNE 1.9 mph   79 % 0.0 in
20:53 17.6 °F 13.9 °F 1021.9 in North 3.7 mph 3.7 mph 79 % 0.0 in
20:58 17.5 °F 13.8 °F 1021.9 in NE 5.6 mph 5.6 mph 79 % 0.0 in
21:03 17.5 °F 13.8 °F 1021.9 in NNE 3.7 mph 3.7 mph 79 % 0.0 in
21:08 17.5 °F 13.8 °F 1021.9 in NNE 4.7 mph 4.7 mph 79 % 0.0 in
21:13 17.5 °F 13.8 °F 1021.9 in NNE 3.9 mph 3.9 mph 79 % 0.0 in
21:18 17.5 °F 13.8 °F 1021.9 in NNE 5.6 mph 5.6 mph 79 % 0.0 in
21:23 17.5 °F 13.8 °F 1021.9 in NNW 5.6 mph 5.6 mph 79 % 0.0 in
21:28 17.5 °F 13.8 °F 1021.9 in North 3.7 mph 3.7 mph 79 % 0.0 in
21:33 17.5 °F 13.8 °F 1021.9 in NNW 3.7 mph   79 % 0.0 in
21:38 17.5 °F 13.8 °F 1021.9 in NNW 3.7 mph   79 % 0.0 in
21:43 17.5 °F 13.8 °F 1021.9 in NW 4.2 mph 4.2 mph 79 % 0.0 in
21:48 17.6 °F 13.9 °F 1021.9 in NW 3.7 mph 3.7 mph 79 % 0.0 in
21:53 17.6 °F 13.9 °F 1021.9 in NNW 3.7 mph 3.7 mph 79 % 0.0 in
21:58 17.5 °F 13.8 °F 1021.9 in NW 5.6 mph 5.6 mph 79 % 0.0 in
22:03 17.5 °F 13.8 °F 1021.9 in NW 3.7 mph   79 % 0.0 in
22:08 17.4 °F 13.7 °F 1021.9 in NW 1.9 mph   79 % 0.0 in
22:13 17.4 °F 13.7 °F 1021.9 in NW 3.7 mph 3.7 mph 79 % 0.0 in
22:18 17.4 °F 13.7 °F 1022.9 in NW 3.9 mph 3.9 mph 79 % 0.0 in
22:23 17.3 °F 13.8 °F 1022.9 in NW 2.6 mph   80 % 0.0 in
22:28 17.3 °F 13.8 °F 1022.9 in NW 2.6 mph 2.6 mph 80 % 0.0 in
22:33 17.3 °F 13.8 °F 1022.9 in NW 2.3 mph 2.3 mph 80 % 0.0 in
22:38 17.3 °F 13.8 °F 1022.9 in NW 1.9 mph   80 % 0.0 in
22:43 17.3 °F 13.8 °F 1022.9 in NW 3.7 mph 3.7 mph 80 % 0.0 in
22:48 17.3 °F 13.8 °F 1022.9 in NW 3.7 mph 3.7 mph 80 % 0.0 in
22:53 17.4 °F 13.9 °F 1022.9 in NW 1.9 mph 2.6 mph 80 % 0.0 in
22:58 17.4 °F 14.1 °F 1022.9 in Calm     81 % 0.0 in
23:03 17.4 °F 14.1 °F 1022.9 in NW 3.7 mph   81 % 0.0 in
23:08 17.4 °F 14.1 °F 1022.9 in NW 2.3 mph 2.3 mph 81 % 0.0 in
23:13 17.4 °F 14.1 °F 1022.9 in Calm     81 % 0.0 in
23:18 17.4 °F 14.1 °F 1022.9 in Calm     81 % 0.0 in
23:23 17.4 °F 14.1 °F 1022.9 in NW 1.9 mph 1.9 mph 81 % 0.0 in
23:28 17.4 °F 14.1 °F 1022.9 in Calm     81 % 0.0 in
23:33 17.4 °F 14.1 °F 1022.9 in NW 1.9 mph   81 % 0.0 in
23:38 17.3 °F 14.2 °F 1022.9 in Calm     82 % 0.0 in
23:43 17.3 °F 14.2 °F 1022.9 in NW 1.9 mph 1.9 mph 82 % 0.0 in
23:48 17.2 °F 14.1 °F 1022.9 in Calm     82 % 0.0 in
23:53 17.2 °F 14.1 °F 1022.9 in NW 1.9 mph   82 % 0.0 in
23:58 17.1 °F 14.0 °F 1022.9 in Calm     82 % 0.0 in
Meteo Sesrovires
Elogis d' Weather Underground - 3.5 mb

Guio original per  Jim McMurry - jmcmurry@mwt.net Adaptat per a la plantilla per  Wim van der Kuil - Leuven-Template.eu

Trobareu la nostra informacio del temps tambe a:

Weather Underground

AWEKAS